createdAt,value
2018-05-02T00:01:48.621Z,9.73
2018-05-02T00:04:16.092Z,11.17
2018-05-02T00:06:43.568Z,14.83
2018-05-02T00:09:11.042Z,13.10
2018-05-02T00:11:39.559Z,10.80
2018-05-02T00:14:07.029Z,12.00
2018-05-02T00:16:34.522Z,10.97
2018-05-02T00:19:02.026Z,11.73
2018-05-02T00:21:29.524Z,11.47
2018-05-02T00:23:56.987Z,12.07
2018-05-02T00:26:24.476Z,14.70
2018-05-02T00:28:52.701Z,17.30
2018-05-02T00:31:20.182Z,14.30
2018-05-02T00:33:48.467Z,14.33
2018-05-02T00:36:15.983Z,19.03
2018-05-02T00:38:43.449Z,12.03
2018-05-02T00:41:10.941Z,12.80
2018-05-02T00:43:38.414Z,18.30
2018-05-02T00:46:05.910Z,12.63
2018-05-02T00:48:33.374Z,12.53
2018-05-02T00:51:00.844Z,11.17
2018-05-02T00:53:28.316Z,11.20
2018-05-02T00:55:55.933Z,18.17
2018-05-02T00:58:24.175Z,12.00
2018-05-02T01:00:51.663Z,16.20
2018-05-02T01:03:19.902Z,15.03
2018-05-02T01:05:47.367Z,13.33
2018-05-02T01:08:14.853Z,14.80
2018-05-02T01:10:43.110Z,14.10
2018-05-02T01:13:10.622Z,12.00
2018-05-02T01:15:38.093Z,11.63
2018-05-02T01:18:05.578Z,14.53
2018-05-02T01:20:33.057Z,23.27
2018-05-02T01:23:00.574Z,17.10
2018-05-02T01:25:28.029Z,14.60
2018-05-02T01:27:55.535Z,28.17
2018-05-02T01:30:22.985Z,16.00
2018-05-02T01:32:50.498Z,17.70
2018-05-02T01:35:17.997Z,17.47
2018-05-02T01:37:45.466Z,14.83
2018-05-02T01:40:12.970Z,15.80
2018-05-02T01:42:40.433Z,19.20
2018-05-02T01:45:07.941Z,14.47
2018-05-02T01:47:35.429Z,22.97
2018-05-02T01:50:03.684Z,16.87
2018-05-02T01:52:31.916Z,20.87
2018-05-02T01:54:59.531Z,20.23
2018-05-02T01:57:27.316Z,15.23
2018-05-02T01:59:54.799Z,17.73
2018-05-02T02:02:22.280Z,19.33
2018-05-02T02:04:50.708Z,15.37
2018-05-02T02:07:18.170Z,14.13
2018-05-02T02:09:45.670Z,19.27
2018-05-02T02:12:13.141Z,13.63
2018-05-02T02:14:40.668Z,16.23
2018-05-02T02:17:08.152Z,16.13
2018-05-02T02:19:35.641Z,20.27
2018-05-02T02:22:03.371Z,17.80
2018-05-02T02:24:30.885Z,13.27
2018-05-02T02:26:58.354Z,14.73
2018-05-02T02:29:25.844Z,14.47
2018-05-02T02:31:53.315Z,13.23
2018-05-02T02:34:20.780Z,16.33
2018-05-02T02:36:48.336Z,16.33
2018-05-02T02:39:15.810Z,12.40
2018-05-02T02:41:43.281Z,13.70
2018-05-02T02:44:11.539Z,20.67
2018-05-02T02:46:39.016Z,18.67
2018-05-02T02:49:07.268Z,13.57
2018-05-02T02:51:34.734Z,15.10
2018-05-02T02:54:02.208Z,12.33
2018-05-02T02:56:30.609Z,21.10
2018-05-02T02:58:58.137Z,13.33
2018-05-02T03:01:25.633Z,16.50
2018-05-02T03:03:53.182Z,19.80
2018-05-02T03:06:20.640Z,22.90
2018-05-02T03:08:48.902Z,15.27
2018-05-02T03:11:17.114Z,21.80
2018-05-02T03:13:44.601Z,28.77
2018-05-02T03:16:12.061Z,14.13
2018-05-02T03:18:39.551Z,14.00
2018-05-02T03:21:07.304Z,15.67
2018-05-02T03:23:34.803Z,15.83
2018-05-02T03:26:02.257Z,23.00
2018-05-02T03:28:29.754Z,16.20
2018-05-02T03:30:57.317Z,16.00
2018-05-02T03:33:24.785Z,11.30
2018-05-02T03:35:52.247Z,12.80
2018-05-02T03:38:19.752Z,15.57
2018-05-02T03:40:47.240Z,13.93
2018-05-02T03:43:14.764Z,12.97
2018-05-02T03:45:42.226Z,13.33
2018-05-02T03:48:10.513Z,13.00
2018-05-02T03:50:37.984Z,17.87
2018-05-02T03:53:05.552Z,11.80
2018-05-02T03:55:33.286Z,13.43
2018-05-02T03:58:00.774Z,19.93
2018-05-02T04:00:39.964Z,12.00
2018-05-02T04:03:20.046Z,12.80
2018-05-02T04:05:59.474Z,14.83
2018-05-02T04:08:26.921Z,13.83
2018-05-02T04:10:55.326Z,11.47
2018-05-02T04:13:22.848Z,11.20
2018-05-02T04:15:51.117Z,19.33
2018-05-02T04:18:19.425Z,12.20
2018-05-02T04:20:46.991Z,14.17
2018-05-02T04:23:14.457Z,11.40
2018-05-02T04:25:42.477Z,9.97
2018-05-02T04:28:10.438Z,15.03
2018-05-02T04:30:38.002Z,10.70
2018-05-02T04:33:05.472Z,14.00
2018-05-02T04:35:32.940Z,14.13
2018-05-02T04:38:01.193Z,11.50
2018-05-02T04:40:28.674Z,10.80
2018-05-02T04:42:56.138Z,13.33
2018-05-02T04:45:24.380Z,8.40
2018-05-02T04:47:51.908Z,10.77
2018-05-02T04:50:19.352Z,8.30
2018-05-02T04:52:47.259Z,10.10
2018-05-02T04:55:14.698Z,14.13
2018-05-02T04:57:42.185Z,9.63
2018-05-02T05:00:09.931Z,11.33
2018-05-02T05:02:37.416Z,18.57
2018-05-02T05:05:05.154Z,10.87
2018-05-02T05:07:32.652Z,8.83
2018-05-02T05:10:00.127Z,16.43
2018-05-02T05:12:28.404Z,13.73
2018-05-02T05:14:56.650Z,9.43
2018-05-02T05:19:58.075Z,8.70
2018-05-02T05:22:25.547Z,9.43
2018-05-02T05:24:53.012Z,17.63
2018-05-02T05:27:20.481Z,10.33
2018-05-02T05:29:48.730Z,12.47
2018-05-02T05:32:16.179Z,6.87
2018-05-02T05:34:43.712Z,6.40
2018-05-02T05:37:11.374Z,7.00
2018-05-02T05:39:38.895Z,7.50
2018-05-02T05:42:06.358Z,6.70
2018-05-02T05:44:33.903Z,7.13
2018-05-02T05:47:01.433Z,6.03
2018-05-02T05:49:29.290Z,7.70
2018-05-02T05:51:56.780Z,6.27
2018-05-02T05:54:24.390Z,5.67
2018-05-02T05:56:51.759Z,5.77
2018-05-02T05:59:19.222Z,4.63
2018-05-02T06:01:46.718Z,5.40
2018-05-02T06:04:15.221Z,6.27
2018-05-02T06:06:42.790Z,4.63
2018-05-02T06:09:10.193Z,4.63
2018-05-02T06:11:37.693Z,8.70
2018-05-02T06:14:05.152Z,4.83
2018-05-02T06:16:35.074Z,4.53
2018-05-02T06:19:03.454Z,4.13
2018-05-02T06:21:30.956Z,3.70
2018-05-02T06:23:59.204Z,5.00
2018-05-02T06:26:26.693Z,7.47
2018-05-02T06:28:54.188Z,21.60
2018-05-02T06:31:21.685Z,12.80
2018-05-02T06:33:49.153Z,8.00
2018-05-02T06:36:16.625Z,8.07
2018-05-02T06:38:44.178Z,6.40
2018-05-02T06:41:12.577Z,2.97
2018-05-02T06:43:40.081Z,2.90
2018-05-02T06:46:07.613Z,2.80
2018-05-02T06:48:35.087Z,2.80
2018-05-02T06:51:02.553Z,2.57
2018-05-02T06:53:30.046Z,2.23
2018-05-02T06:55:58.271Z,2.53
2018-05-02T06:58:25.751Z,2.67
2018-05-02T07:00:53.511Z,2.80
2018-05-02T07:03:21.025Z,4.17
2018-05-02T07:05:49.282Z,3.10
2018-05-02T07:08:16.775Z,2.83
2018-05-02T07:10:44.373Z,1.80
2018-05-02T07:13:12.549Z,2.03
2018-05-02T07:15:40.232Z,2.17
2018-05-02T07:18:07.736Z,2.80
2018-05-02T07:20:35.224Z,3.03
2018-05-02T07:23:02.858Z,2.90
2018-05-02T07:25:30.321Z,2.00
2018-05-02T07:27:57.789Z,2.33
2018-05-02T07:30:25.281Z,2.00
2018-05-02T07:32:53.028Z,2.15
2018-05-02T07:35:21.100Z,2.72
2018-05-02T07:37:48.568Z,2.40
2018-05-02T07:40:16.686Z,3.85
2018-05-02T07:42:44.915Z,2.50
2018-05-02T07:45:13.198Z,3.15
2018-05-02T07:47:40.664Z,6.60
2018-05-02T07:50:08.169Z,2.67
2018-05-02T07:52:35.649Z,4.03
2018-05-02T07:55:03.173Z,3.20
2018-05-02T07:57:30.608Z,2.08
2018-05-02T07:59:58.117Z,3.05
2018-05-02T08:02:25.585Z,2.10
2018-05-02T08:04:53.073Z,3.97
2018-05-02T08:07:20.715Z,2.75
2018-05-02T08:09:48.231Z,1.95
2018-05-02T08:12:16.734Z,1.52
2018-05-02T08:14:44.205Z,3.80
2018-05-02T08:17:11.693Z,2.10
2018-05-02T08:19:39.258Z,1.42
2018-05-02T08:22:06.832Z,5.78
2018-05-02T08:24:34.643Z,2.47
2018-05-02T08:27:02.220Z,2.00
2018-05-02T08:29:29.695Z,2.37
2018-05-02T08:31:57.195Z,3.78
2018-05-02T08:34:25.585Z,3.62
2018-05-02T08:36:53.114Z,2.10
2018-05-02T08:39:20.662Z,3.72
2018-05-02T08:41:48.188Z,2.28
2018-05-02T08:44:16.150Z,4.90
2018-05-02T08:46:43.946Z,2.20
2018-05-02T08:49:11.423Z,5.90
2018-05-02T08:51:39.722Z,2.95
2018-05-02T08:54:07.981Z,6.85
2018-05-02T08:56:36.252Z,2.28
2018-05-02T08:59:03.812Z,2.12
2018-05-02T09:01:31.281Z,3.17
2018-05-02T09:03:58.750Z,1.90
2018-05-02T09:06:26.331Z,6.18
2018-05-02T09:08:53.884Z,2.53
2018-05-02T09:11:21.320Z,4.25
2018-05-02T09:13:48.884Z,2.42
2018-05-02T09:16:16.359Z,3.12
2018-05-02T09:18:44.884Z,2.40
2018-05-02T09:21:12.412Z,2.50
2018-05-02T09:23:40.237Z,3.15
2018-05-02T09:26:08.925Z,3.30
2018-05-02T09:28:36.393Z,2.73
2018-05-02T09:31:03.937Z,2.87
2018-05-02T09:33:31.521Z,2.40
2018-05-02T09:35:58.925Z,3.40
2018-05-02T09:38:26.574Z,3.17
2018-05-02T09:40:54.125Z,2.83
2018-05-02T09:43:21.637Z,3.93
2018-05-02T09:45:49.294Z,3.20
2018-05-02T09:48:17.049Z,2.73
2018-05-02T09:50:44.558Z,3.53
2018-05-02T09:53:12.783Z,8.03
2018-05-02T09:55:41.104Z,3.17
2018-05-02T09:58:08.584Z,3.30
2018-05-02T10:00:36.068Z,2.67
2018-05-02T10:03:03.543Z,3.30
2018-05-02T10:05:31.035Z,3.30
2018-05-02T10:07:58.543Z,3.47
2018-05-02T10:10:26.021Z,3.90
2018-05-02T10:12:53.520Z,3.47
2018-05-02T10:15:21.765Z,3.80
2018-05-02T10:17:49.280Z,3.57
2018-05-02T10:20:17.058Z,4.40
2018-05-02T10:22:44.542Z,4.27
2018-05-02T10:25:12.032Z,3.20
2018-05-02T10:27:39.497Z,3.67
2018-05-02T10:30:07.760Z,3.50
2018-05-02T10:32:35.224Z,3.70
2018-05-02T10:35:02.829Z,4.90
2018-05-02T10:37:30.317Z,3.25
2018-05-02T10:39:57.801Z,5.95
2018-05-02T10:42:25.295Z,2.85
2018-05-02T10:44:52.781Z,2.87
2018-05-02T10:47:20.463Z,3.80
2018-05-02T10:49:47.975Z,2.80
2018-05-02T10:52:15.450Z,3.13
2018-05-02T10:54:42.988Z,2.47
2018-05-02T10:57:10.425Z,2.87
2018-05-02T10:59:38.738Z,5.10
2018-05-02T11:02:06.232Z,2.90
2018-05-02T11:04:33.713Z,2.67
2018-05-02T11:07:01.229Z,3.73
2018-05-02T11:09:28.708Z,3.03
2018-05-02T11:11:56.217Z,2.80
2018-05-02T11:14:24.465Z,3.30
2018-05-02T11:16:51.998Z,3.03
2018-05-02T11:19:19.477Z,3.03
2018-05-02T11:21:46.954Z,3.43
2018-05-02T11:24:15.201Z,2.80
2018-05-02T11:26:42.657Z,2.97
2018-05-02T11:29:10.908Z,4.00
2018-05-02T11:31:38.398Z,3.10
2018-05-02T11:34:05.904Z,2.13
2018-05-02T11:36:33.429Z,4.17
2018-05-02T11:39:01.708Z,3.03
2018-05-02T11:41:29.226Z,3.00
2018-05-02T11:43:56.705Z,3.30
2018-05-02T11:46:24.244Z,2.77
2018-05-02T11:48:51.733Z,4.03
2018-05-02T11:51:19.205Z,2.70
2018-05-02T11:53:46.708Z,3.13
2018-05-02T11:56:14.180Z,10.53
2018-05-02T11:58:41.654Z,2.83
2018-05-02T12:01:09.128Z,3.50
2018-05-02T12:03:36.613Z,2.90
2018-05-02T12:06:04.864Z,4.00
2018-05-02T12:08:32.344Z,6.57
2018-05-02T12:10:59.903Z,3.63
2018-05-02T12:13:28.190Z,2.90
2018-05-02T12:15:56.490Z,3.77
2018-05-02T12:18:24.281Z,3.13
2018-05-02T12:20:51.744Z,3.00
2018-05-02T12:23:19.978Z,2.90
2018-05-02T12:25:47.551Z,3.73
2018-05-02T12:28:15.002Z,7.00
2018-05-02T12:30:42.470Z,2.83
2018-05-02T12:33:09.963Z,3.07
2018-05-02T12:35:37.526Z,3.97
2018-05-02T12:38:05.012Z,9.37
2018-05-02T12:40:33.267Z,3.83
2018-05-02T12:43:00.804Z,3.60
2018-05-02T12:45:28.289Z,3.30
2018-05-02T12:47:55.763Z,3.10
2018-05-02T12:50:23.301Z,3.90
2018-05-02T12:52:50.812Z,3.67
2018-05-02T12:55:19.310Z,8.87
2018-05-02T12:57:46.859Z,3.47
2018-05-02T13:00:14.321Z,3.17
2018-05-02T13:02:41.796Z,3.50
2018-05-02T13:05:09.382Z,4.60
2018-05-02T13:07:36.926Z,5.93
2018-05-02T13:10:04.740Z,3.80
2018-05-02T13:12:32.349Z,2.67
2018-05-02T13:14:59.826Z,3.60
2018-05-02T13:17:28.352Z,6.67
2018-05-02T13:19:56.861Z,4.03
2018-05-02T13:22:24.585Z,6.30
2018-05-02T13:24:53.134Z,3.73
2018-05-02T13:27:20.689Z,6.17
2018-05-02T13:29:48.173Z,3.07
2018-05-02T13:32:15.647Z,3.43
2018-05-02T13:34:43.138Z,3.20
2018-05-02T13:37:10.903Z,4.03
2018-05-02T13:39:38.455Z,3.53
2018-05-02T13:42:05.937Z,3.50
2018-05-02T13:44:33.458Z,4.00
2018-05-02T13:47:01.688Z,3.80
2018-05-02T13:49:29.173Z,3.27
2018-05-02T13:51:56.952Z,2.90
2018-05-02T13:54:25.367Z,4.00
2018-05-02T13:56:54.015Z,4.90
2018-05-02T13:59:21.501Z,4.70
2018-05-02T14:01:49.053Z,3.97
2018-05-02T14:04:17.299Z,3.40
2018-05-02T14:06:45.539Z,3.47
2018-05-02T14:09:12.999Z,3.20
2018-05-02T14:11:40.509Z,4.27
2018-05-02T14:14:08.120Z,3.83
2018-05-02T14:16:35.622Z,3.10
2018-05-02T14:19:04.079Z,3.73
2018-05-02T14:21:31.539Z,4.30
2018-05-02T14:24:00.145Z,3.23
2018-05-02T14:26:28.151Z,3.13
2018-05-02T14:28:55.660Z,4.00
2018-05-02T14:31:23.153Z,4.03
2018-05-02T14:33:51.388Z,8.17
2018-05-02T14:36:18.956Z,3.77
2018-05-02T14:38:46.463Z,3.50
2018-05-02T14:41:13.983Z,5.40
2018-05-02T14:43:41.452Z,3.93
2018-05-02T14:46:08.929Z,3.37
2018-05-02T14:48:37.205Z,4.73
2018-05-02T14:51:04.726Z,3.50
2018-05-02T14:53:32.207Z,3.13
2018-05-02T14:55:59.763Z,3.83
2018-05-02T14:58:27.448Z,3.60
2018-05-02T15:00:54.968Z,3.97
2018-05-02T15:03:22.464Z,3.70
2018-05-02T15:05:50.091Z,3.63
2018-05-02T15:08:17.675Z,10.90
2018-05-02T15:10:45.101Z,4.30
2018-05-02T15:13:13.389Z,3.50
2018-05-02T15:15:40.866Z,3.67
2018-05-02T15:18:08.460Z,4.03
2018-05-02T15:20:35.941Z,4.13
2018-05-02T15:23:03.452Z,4.47
2018-05-02T15:25:31.727Z,3.37
2018-05-02T15:27:59.200Z,3.17
2018-05-02T15:30:27.823Z,5.53
2018-05-02T15:32:55.287Z,3.40
2018-05-02T15:35:23.997Z,3.57
2018-05-02T15:37:51.489Z,3.50
2018-05-02T15:40:19.284Z,3.30
2018-05-02T15:42:46.777Z,5.60
2018-05-02T15:45:14.295Z,4.43
2018-05-02T15:47:42.904Z,4.43
2018-05-02T15:50:10.567Z,4.20
2018-05-02T15:52:38.072Z,3.00
2018-05-02T15:55:06.348Z,4.17
2018-05-02T15:57:34.618Z,2.97
2018-05-02T16:00:02.126Z,3.50
2018-05-02T16:02:29.970Z,3.53
2018-05-02T16:04:57.699Z,3.30
2018-05-02T16:07:25.185Z,3.00
2018-05-02T16:09:53.562Z,3.10
2018-05-02T16:12:21.827Z,2.40
2018-05-02T16:14:49.357Z,2.70
2018-05-02T16:17:16.850Z,3.63
2018-05-02T16:19:44.323Z,2.83
2018-05-02T16:22:12.720Z,2.40
2018-05-02T16:24:40.144Z,2.50
2018-05-02T16:27:07.679Z,6.00
2018-05-02T16:29:35.213Z,2.93
2018-05-02T16:32:02.694Z,2.57
2018-05-02T16:34:30.563Z,3.03
2018-05-02T16:36:58.126Z,5.07
2018-05-02T16:39:25.657Z,2.70
2018-05-02T16:41:53.074Z,2.50
2018-05-02T16:44:20.618Z,5.30
2018-05-02T16:46:48.897Z,2.57
2018-05-02T16:49:16.376Z,2.33
2018-05-02T16:51:43.877Z,2.80
2018-05-02T16:54:11.763Z,3.10
2018-05-02T16:56:39.349Z,2.50
2018-05-02T16:59:07.618Z,3.00
2018-05-02T17:01:35.076Z,2.83
2018-05-02T17:04:02.596Z,3.97
2018-05-02T17:06:30.073Z,3.10
2018-05-02T17:08:57.672Z,4.87
2018-05-02T17:11:25.962Z,2.10
2018-05-02T17:13:54.237Z,2.97
2018-05-02T17:16:21.723Z,3.17
2018-05-02T17:18:49.275Z,3.20
2018-05-02T17:21:16.749Z,2.80
2018-05-02T17:23:44.221Z,2.50
2018-05-02T17:26:11.718Z,2.57
2018-05-02T17:28:39.197Z,2.73
2018-05-02T17:31:06.662Z,2.70
2018-05-02T17:33:34.129Z,2.60
2018-05-02T17:36:01.641Z,2.83
2018-05-02T17:38:29.105Z,3.90
2018-05-02T17:40:56.671Z,5.40
2018-05-02T17:43:25.629Z,4.33
2018-05-02T17:45:53.262Z,3.43
2018-05-02T17:48:20.736Z,2.80
2018-05-02T17:50:48.243Z,3.23
2018-05-02T17:53:15.769Z,3.37
2018-05-02T17:55:43.272Z,3.77
2018-05-02T17:58:10.786Z,3.77
2018-05-02T18:00:38.256Z,3.73
2018-05-02T18:03:05.716Z,7.03
2018-05-02T18:05:33.471Z,4.10
2018-05-02T18:08:00.910Z,3.67
2018-05-02T18:10:28.448Z,4.33
2018-05-02T18:12:55.906Z,2.77
2018-05-02T18:15:25.129Z,3.30
2018-05-02T18:17:52.678Z,3.93
2018-05-02T18:20:20.159Z,2.90
2018-05-02T18:22:47.625Z,3.30
2018-05-02T18:25:15.094Z,6.03
2018-05-02T18:27:42.631Z,4.23
2018-05-02T18:30:10.123Z,4.20
2018-05-02T18:32:37.611Z,2.70
2018-05-02T18:35:05.846Z,2.80
2018-05-02T18:37:33.324Z,2.53
2018-05-02T18:40:00.795Z,2.70
2018-05-02T18:42:29.173Z,3.10
2018-05-02T18:44:57.401Z,3.37
2018-05-02T18:47:24.873Z,3.20
2018-05-02T18:49:52.398Z,4.30
2018-05-02T18:52:19.888Z,3.60
2018-05-02T18:54:47.364Z,4.00
2018-05-02T18:57:14.860Z,6.43
2018-05-02T18:59:42.360Z,3.47
2018-05-02T19:02:09.840Z,4.17
2018-05-02T19:04:37.311Z,5.37
2018-05-02T19:07:04.790Z,4.90
2018-05-02T19:09:33.101Z,4.60
2018-05-02T19:12:00.590Z,4.53
2018-05-02T19:14:28.102Z,2.97
2018-05-02T19:16:55.604Z,3.43
2018-05-02T19:19:28.922Z,3.10
2018-05-02T19:21:56.417Z,5.60
2018-05-02T19:24:23.894Z,3.43
2018-05-02T19:26:53.632Z,4.10
2018-05-02T19:29:21.112Z,3.67
2018-05-02T19:31:54.197Z,4.40
2018-05-02T19:34:21.750Z,5.17
2018-05-02T19:36:49.211Z,4.20
2018-05-02T19:39:17.092Z,4.63
2018-05-02T19:41:51.241Z,5.43
2018-05-02T19:44:18.914Z,3.50
2018-05-02T19:46:46.969Z,4.43
2018-05-02T19:49:14.524Z,4.27
2018-05-02T19:51:48.501Z,4.43
2018-05-02T19:54:16.239Z,4.17
2018-05-02T19:56:43.704Z,4.47
2018-05-02T19:59:11.337Z,4.40
2018-05-02T20:01:49.807Z,4.80
2018-05-02T20:04:18.181Z,4.90
2018-05-02T20:06:46.451Z,5.40
2018-05-02T20:09:20.401Z,4.70
2018-05-02T20:11:54.385Z,5.53
2018-05-02T20:14:21.870Z,5.10
2018-05-02T20:16:49.360Z,5.10
2018-05-02T20:19:16.848Z,3.97
2018-05-02T20:21:44.339Z,4.50
2018-05-02T20:24:12.747Z,4.53
2018-05-02T20:26:40.291Z,5.07
2018-05-02T20:29:08.517Z,4.80
2018-05-02T20:31:36.011Z,6.00
2018-05-02T20:34:03.531Z,4.97
2018-05-02T20:36:31.075Z,6.10
2018-05-02T20:38:58.475Z,4.60
2018-05-02T20:41:25.971Z,4.43
2018-05-02T20:43:53.646Z,5.03
2018-05-02T20:46:21.247Z,5.30
2018-05-02T20:48:48.677Z,5.80
2018-05-02T20:51:16.163Z,4.90
2018-05-02T20:53:43.670Z,12.23
2018-05-02T20:56:11.901Z,5.27
2018-05-02T20:58:39.675Z,6.40
2018-05-02T21:01:07.169Z,6.07
2018-05-02T21:03:34.781Z,6.90
2018-05-02T21:06:02.333Z,5.43
2018-05-02T21:08:29.826Z,5.77
2018-05-02T21:10:57.328Z,5.50
2018-05-02T21:13:25.033Z,4.87
2018-05-02T21:15:53.283Z,6.30
2018-05-02T21:18:20.789Z,7.67
2018-05-02T21:20:49.054Z,9.03
2018-05-02T21:23:16.631Z,7.63
2018-05-02T21:25:44.879Z,7.23
2018-05-02T21:28:12.380Z,7.30
2018-05-02T21:30:40.809Z,10.23
2018-05-02T21:33:08.301Z,6.47
2018-05-02T21:35:39.031Z,6.53
2018-05-02T21:38:06.514Z,11.27
2018-05-02T21:40:34.812Z,6.90
2018-05-02T21:43:02.306Z,6.50
2018-05-02T21:45:29.790Z,6.10
2018-05-02T21:47:58.082Z,7.23
2018-05-02T21:50:26.326Z,6.10
2018-05-02T21:52:53.962Z,6.07
2018-05-02T21:55:21.436Z,6.43
2018-05-02T21:57:48.945Z,6.67
2018-05-02T22:00:17.187Z,6.50
2018-05-02T22:02:44.707Z,5.77
2018-05-02T22:05:12.176Z,6.53
2018-05-02T22:07:39.660Z,10.03
2018-05-02T22:10:07.131Z,5.17
2018-05-02T22:12:35.379Z,7.00
2018-05-02T22:15:02.875Z,4.97
2018-05-02T22:17:31.117Z,4.83
2018-05-02T22:19:58.601Z,5.43
2018-05-02T22:22:26.112Z,5.23
2018-05-02T22:24:53.700Z,5.50
2018-05-02T22:27:21.162Z,6.27
2018-05-02T22:29:48.677Z,6.53
2018-05-02T22:32:16.144Z,7.20
2018-05-02T22:34:44.089Z,5.77
2018-05-02T22:37:12.329Z,10.13
2018-05-02T22:39:39.800Z,5.10
2018-05-02T22:42:07.290Z,5.27
2018-05-02T22:44:34.762Z,5.50
2018-05-02T22:47:02.265Z,6.40
2018-05-02T22:49:29.721Z,5.33
2018-05-02T22:51:57.222Z,5.67
2018-05-02T22:54:24.735Z,5.27
2018-05-02T22:56:52.197Z,5.83
2018-05-02T22:59:19.691Z,5.90
2018-05-02T23:01:48.062Z,6.70
2018-05-02T23:04:16.391Z,7.20
2018-05-02T23:06:44.233Z,7.37
2018-05-02T23:09:11.726Z,6.60
2018-05-02T23:11:39.198Z,5.93
2018-05-02T23:14:06.695Z,10.77
2018-05-02T23:16:34.930Z,6.57
2018-05-02T23:19:02.417Z,6.40
2018-05-02T23:21:30.650Z,7.07
2018-05-02T23:23:58.168Z,6.60
2018-05-02T23:26:25.671Z,11.07
2018-05-02T23:28:53.150Z,7.03
2018-05-02T23:31:20.641Z,6.97
2018-05-02T23:33:48.909Z,7.63
2018-05-02T23:36:16.403Z,8.70
2018-05-02T23:38:43.912Z,8.43
2018-05-02T23:41:11.403Z,8.50
2018-05-02T23:43:38.936Z,8.77
2018-05-02T23:46:06.405Z,8.00
2018-05-02T23:48:34.692Z,8.80
2018-05-02T23:51:02.168Z,10.17
2018-05-02T23:53:29.616Z,8.70
2018-05-02T23:55:57.105Z,9.30
2018-05-02T23:58:24.598Z,8.13
